sensor_id;sensor_type;location;lat;lon;timestamp;temperature;humidity
4386;DHT22;2207;53.540;10.042;2023-05-19T00:00:03;8.20;55.50
4386;DHT22;2207;53.540;10.042;2023-05-19T00:02:31;8.20;55.50
4386;DHT22;2207;53.540;10.042;2023-05-19T00:04:59;8.20;55.50
4386;DHT22;2207;53.540;10.042;2023-05-19T00:07:29;8.20;55.60
4386;DHT22;2207;53.540;10.042;2023-05-19T00:09:58;8.20;56.00
4386;DHT22;2207;53.540;10.042;2023-05-19T00:12:25;8.30;56.00
4386;DHT22;2207;53.540;10.042;2023-05-19T00:14:52;8.30;55.90
4386;DHT22;2207;53.540;10.042;2023-05-19T00:17:19;8.30;55.80
4386;DHT22;2207;53.540;10.042;2023-05-19T00:19:46;8.30;56.20
4386;DHT22;2207;53.540;10.042;2023-05-19T00:22:13;8.30;56.50
4386;DHT22;2207;53.540;10.042;2023-05-19T00:24:40;8.40;56.50
4386;DHT22;2207;53.540;10.042;2023-05-19T00:27:08;8.40;56.60
4386;DHT22;2207;53.540;10.042;2023-05-19T00:29:34;8.40;56.50
4386;DHT22;2207;53.540;10.042;2023-05-19T00:32:01;8.40;56.60
4386;DHT22;2207;53.540;10.042;2023-05-19T00:34:28;8.40;56.40
4386;DHT22;2207;53.540;10.042;2023-05-19T00:36:55;8.40;56.60
4386;DHT22;2207;53.540;10.042;2023-05-19T00:39:21;8.40;57.00
4386;DHT22;2207;53.540;10.042;2023-05-19T00:41:48;8.40;57.00
4386;DHT22;2207;53.540;10.042;2023-05-19T00:44:16;8.40;57.60
4386;DHT22;2207;53.540;10.042;2023-05-19T00:46:42;8.40;57.00
4386;DHT22;2207;53.540;10.042;2023-05-19T00:49:09;8.40;57.00
4386;DHT22;2207;53.540;10.042;2023-05-19T00:51:36;8.40;57.00
4386;DHT22;2207;53.540;10.042;2023-05-19T00:54:03;8.40;57.10
4386;DHT22;2207;53.540;10.042;2023-05-19T00:56:30;8.40;57.10
4386;DHT22;2207;53.540;10.042;2023-05-19T00:58:57;8.30;57.10
4386;DHT22;2207;53.540;10.042;2023-05-19T01:01:26;8.40;57.90
4386;DHT22;2207;53.540;10.042;2023-05-19T01:03:52;8.40;57.40
4386;DHT22;2207;53.540;10.042;2023-05-19T01:06:21;8.40;57.70
4386;DHT22;2207;53.540;10.042;2023-05-19T01:08:47;8.30;57.60
4386;DHT22;2207;53.540;10.042;2023-05-19T01:11:14;8.30;57.70
4386;DHT22;2207;53.540;10.042;2023-05-19T01:13:41;8.30;57.90
4386;DHT22;2207;53.540;10.042;2023-05-19T01:16:11;8.30;57.70
4386;DHT22;2207;53.540;10.042;2023-05-19T01:18:48;8.30;57.80
4386;DHT22;2207;53.540;10.042;2023-05-19T01:21:48;8.20;57.90
4386;DHT22;2207;53.540;10.042;2023-05-19T01:24:33;8.20;57.90
4386;DHT22;2207;53.540;10.042;2023-05-19T01:27:28;8.10;58.20
4386;DHT22;2207;53.540;10.042;2023-05-19T01:30:17;8.10;58.30
4386;DHT22;2207;53.540;10.042;2023-05-19T01:32:52;8.10;58.30
4386;DHT22;2207;53.540;10.042;2023-05-19T01:35:22;8.10;58.40
4386;DHT22;2207;53.540;10.042;2023-05-19T01:37:50;8.00;58.20
4386;DHT22;2207;53.540;10.042;2023-05-19T01:40:18;8.00;58.40
4386;DHT22;2207;53.540;10.042;2023-05-19T01:42:46;8.00;58.30
4386;DHT22;2207;53.540;10.042;2023-05-19T01:45:14;8.00;58.40
4386;DHT22;2207;53.540;10.042;2023-05-19T01:47:45;8.00;58.50
4386;DHT22;2207;53.540;10.042;2023-05-19T01:50:12;8.00;58.40
4386;DHT22;2207;53.540;10.042;2023-05-19T01:52:39;7.90;58.40
4386;DHT22;2207;53.540;10.042;2023-05-19T01:55:07;7.90;58.40
4386;DHT22;2207;53.540;10.042;2023-05-19T01:57:42;7.90;58.40
4386;DHT22;2207;53.540;10.042;2023-05-19T02:00:17;7.90;58.40
4386;DHT22;2207;53.540;10.042;2023-05-19T02:02:55;7.80;58.60
4386;DHT22;2207;53.540;10.042;2023-05-19T02:05:30;7.80;58.60
4386;DHT22;2207;53.540;10.042;2023-05-19T02:08:05;7.80;58.80
4386;DHT22;2207;53.540;10.042;2023-05-19T02:10:39;7.80;58.80
4386;DHT22;2207;53.540;10.042;2023-05-19T02:13:10;7.80;59.30
4386;DHT22;2207;53.540;10.042;2023-05-19T02:15:40;7.80;59.10
4386;DHT22;2207;53.540;10.042;2023-05-19T02:18:08;7.80;59.40
4386;DHT22;2207;53.540;10.042;2023-05-19T02:20:36;7.80;59.30
4386;DHT22;2207;53.540;10.042;2023-05-19T02:23:02;7.80;59.20
4386;DHT22;2207;53.540;10.042;2023-05-19T02:25:31;7.90;59.40
4386;DHT22;2207;53.540;10.042;2023-05-19T02:27:57;7.90;59.40
4386;DHT22;2207;53.540;10.042;2023-05-19T02:30:24;7.90;59.30
4386;DHT22;2207;53.540;10.042;2023-05-19T02:32:52;7.90;59.20
4386;DHT22;2207;53.540;10.042;2023-05-19T02:35:19;7.90;59.10
4386;DHT22;2207;53.540;10.042;2023-05-19T02:37:46;7.90;59.10
4386;DHT22;2207;53.540;10.042;2023-05-19T02:40:13;7.90;59.10
4386;DHT22;2207;53.540;10.042;2023-05-19T02:42:39;7.90;59.00
4386;DHT22;2207;53.540;10.042;2023-05-19T02:45:07;7.90;59.20
4386;DHT22;2207;53.540;10.042;2023-05-19T02:47:34;7.90;59.20
4386;DHT22;2207;53.540;10.042;2023-05-19T02:50:02;7.90;59.30
4386;DHT22;2207;53.540;10.042;2023-05-19T02:52:28;7.90;59.30
4386;DHT22;2207;53.540;10.042;2023-05-19T02:54:55;7.90;59.40
4386;DHT22;2207;53.540;10.042;2023-05-19T02:57:22;7.90;59.60
4386;DHT22;2207;53.540;10.042;2023-05-19T02:59:48;7.90;59.80
4386;DHT22;2207;53.540;10.042;2023-05-19T03:02:15;7.90;60.00
4386;DHT22;2207;53.540;10.042;2023-05-19T03:04:41;7.80;60.40
4386;DHT22;2207;53.540;10.042;2023-05-19T03:07:10;7.80;60.40
4386;DHT22;2207;53.540;10.042;2023-05-19T03:09:38;7.80;60.70
4386;DHT22;2207;53.540;10.042;2023-05-19T03:12:05;7.80;60.90
4386;DHT22;2207;53.540;10.042;2023-05-19T03:14:32;7.80;60.90
4386;DHT22;2207;53.540;10.042;2023-05-19T03:17:01;7.80;60.70
4386;DHT22;2207;53.540;10.042;2023-05-19T03:19:28;7.90;60.60
4386;DHT22;2207;53.540;10.042;2023-05-19T03:21:56;7.80;60.80
4386;DHT22;2207;53.540;10.042;2023-05-19T03:24:24;7.80;60.90
4386;DHT22;2207;53.540;10.042;2023-05-19T03:26:51;7.90;60.80
4386;DHT22;2207;53.540;10.042;2023-05-19T03:29:18;7.90;60.70
4386;DHT22;2207;53.540;10.042;2023-05-19T03:31:45;7.90;60.80
4386;DHT22;2207;53.540;10.042;2023-05-19T03:34:12;7.90;60.90
4386;DHT22;2207;53.540;10.042;2023-05-19T03:36:39;7.90;60.80
4386;DHT22;2207;53.540;10.042;2023-05-19T03:39:06;8.00;61.00
4386;DHT22;2207;53.540;10.042;2023-05-19T03:41:35;8.00;61.30
4386;DHT22;2207;53.540;10.042;2023-05-19T03:44:01;8.00;61.00
4386;DHT22;2207;53.540;10.042;2023-05-19T03:46:28;8.10;61.00
4386;DHT22;2207;53.540;10.042;2023-05-19T03:48:55;8.20;61.00
4386;DHT22;2207;53.540;10.042;2023-05-19T03:51:21;8.20;61.00
4386;DHT22;2207;53.540;10.042;2023-05-19T03:53:48;8.30;61.00
4386;DHT22;2207;53.540;10.042;2023-05-19T03:56:15;8.40;61.00
4386;DHT22;2207;53.540;10.042;2023-05-19T03:58:43;8.50;61.10
4386;DHT22;2207;53.540;10.042;2023-05-19T04:01:11;8.60;61.10
4386;DHT22;2207;53.540;10.042;2023-05-19T04:03:38;8.70;61.00
4386;DHT22;2207;53.540;10.042;2023-05-19T04:06:05;8.80;60.90
4386;DHT22;2207;53.540;10.042;2023-05-19T04:08:32;8.90;60.80
4386;DHT22;2207;53.540;10.042;2023-05-19T04:10:59;8.90;61.50
4386;DHT22;2207;53.540;10.042;2023-05-19T04:13:25;8.90;60.80
4386;DHT22;2207;53.540;10.042;2023-05-19T04:15:54;9.00;60.90
4386;DHT22;2207;53.540;10.042;2023-05-19T04:18:20;9.00;60.90
4386;DHT22;2207;53.540;10.042;2023-05-19T04:20:47;9.10;61.00
4386;DHT22;2207;53.540;10.042;2023-05-19T04:23:14;9.20;61.80
4386;DHT22;2207;53.540;10.042;2023-05-19T04:25:40;9.30;61.10
4386;DHT22;2207;53.540;10.042;2023-05-19T04:28:07;9.40;60.90
4386;DHT22;2207;53.540;10.042;2023-05-19T04:30:34;9.50;60.80
4386;DHT22;2207;53.540;10.042;2023-05-19T04:33:02;9.60;60.80
4386;DHT22;2207;53.540;10.042;2023-05-19T04:35:29;9.80;60.80
4386;DHT22;2207;53.540;10.042;2023-05-19T04:37:56;10.00;59.50
4386;DHT22;2207;53.540;10.042;2023-05-19T04:40:23;10.10;59.30
4386;DHT22;2207;53.540;10.042;2023-05-19T04:42:49;10.10;59.30
4386;DHT22;2207;53.540;10.042;2023-05-19T04:45:17;10.30;59.50
4386;DHT22;2207;53.540;10.042;2023-05-19T04:47:43;10.40;59.80
4386;DHT22;2207;53.540;10.042;2023-05-19T04:50:12;10.50;59.10
4386;DHT22;2207;53.540;10.042;2023-05-19T04:52:39;10.70;59.10
4386;DHT22;2207;53.540;10.042;2023-05-19T04:55:07;10.80;58.80
4386;DHT22;2207;53.540;10.042;2023-05-19T04:57:35;10.80;58.50
4386;DHT22;2207;53.540;10.042;2023-05-19T05:00:04;10.90;58.70
4386;DHT22;2207;53.540;10.042;2023-05-19T05:02:32;10.90;58.40
4386;DHT22;2207;53.540;10.042;2023-05-19T05:04:59;11.00;58.70
4386;DHT22;2207;53.540;10.042;2023-05-19T05:07:28;11.20;58.40
4386;DHT22;2207;53.540;10.042;2023-05-19T05:09:55;11.20;59.00
4386;DHT22;2207;53.540;10.042;2023-05-19T05:12:22;11.30;58.50
4386;DHT22;2207;53.540;10.042;2023-05-19T05:14:49;11.40;58.20
4386;DHT22;2207;53.540;10.042;2023-05-19T05:17:16;11.60;58.40
4386;DHT22;2207;53.540;10.042;2023-05-19T05:19:43;11.70;58.00
4386;DHT22;2207;53.540;10.042;2023-05-19T05:22:10;11.80;57.70
4386;DHT22;2207;53.540;10.042;2023-05-19T05:24:39;11.80;57.40
4386;DHT22;2207;53.540;10.042;2023-05-19T05:27:06;11.90;57.60
4386;DHT22;2207;53.540;10.042;2023-05-19T05:29:34;12.00;57.60
4386;DHT22;2207;53.540;10.042;2023-05-19T05:32:01;12.10;57.30
4386;DHT22;2207;53.540;10.042;2023-05-19T05:34:28;12.20;57.80
4386;DHT22;2207;53.540;10.042;2023-05-19T05:36:54;12.80;57.80
4386;DHT22;2207;53.540;10.042;2023-05-19T05:39:21;13.30;56.90
4386;DHT22;2207;53.540;10.042;2023-05-19T05:41:49;13.80;56.20
4386;DHT22;2207;53.540;10.042;2023-05-19T05:44:16;14.00;55.30
4386;DHT22;2207;53.540;10.042;2023-05-19T05:46:43;14.20;54.60
4386;DHT22;2207;53.540;10.042;2023-05-19T05:49:10;14.30;54.30
4386;DHT22;2207;53.540;10.042;2023-05-19T05:51:38;14.30;54.30
4386;DHT22;2207;53.540;10.042;2023-05-19T05:54:06;14.60;54.60
4386;DHT22;2207;53.540;10.042;2023-05-19T05:56:33;15.10;54.30
4386;DHT22;2207;53.540;10.042;2023-05-19T05:59:02;16.00;54.00
4386;DHT22;2207;53.540;10.042;2023-05-19T06:01:30;17.30;52.30
4386;DHT22;2207;53.540;10.042;2023-05-19T06:03:56;18.00;49.70
4386;DHT22;2207;53.540;10.042;2023-05-19T06:06:23;18.10;48.40
4386;DHT22;2207;53.540;10.042;2023-05-19T06:08:50;18.10;48.40
4386;DHT22;2207;53.540;10.042;2023-05-19T06:11:16;17.90;48.30
4386;DHT22;2207;53.540;10.042;2023-05-19T06:13:44;17.70;47.60
4386;DHT22;2207;53.540;10.042;2023-05-19T06:16:12;17.10;48.10
4386;DHT22;2207;53.540;10.042;2023-05-19T06:18:38;16.70;48.40
4386;DHT22;2207;53.540;10.042;2023-05-19T06:21:05;16.20;49.20
4386;DHT22;2207;53.540;10.042;2023-05-19T06:23:34;16.10;49.20
4386;DHT22;2207;53.540;10.042;2023-05-19T06:26:01;16.00;49.30
4386;DHT22;2207;53.540;10.042;2023-05-19T06:28:28;16.10;49.60
4386;DHT22;2207;53.540;10.042;2023-05-19T06:30:54;16.30;49.30
4386;DHT22;2207;53.540;10.042;2023-05-19T06:33:23;16.60;48.70
4386;DHT22;2207;53.540;10.042;2023-05-19T06:35:49;16.70;48.30
4386;DHT22;2207;53.540;10.042;2023-05-19T06:38:16;16.70;47.50
4386;DHT22;2207;53.540;10.042;2023-05-19T06:40:43;17.00;48.00
4386;DHT22;2207;53.540;10.042;2023-05-19T06:43:10;17.40;46.60
4386;DHT22;2207;53.540;10.042;2023-05-19T06:45:36;17.70;46.50
4386;DHT22;2207;53.540;10.042;2023-05-19T06:48:03;18.00;45.80
4386;DHT22;2207;53.540;10.042;2023-05-19T06:50:32;18.30;44.70
4386;DHT22;2207;53.540;10.042;2023-05-19T06:52:58;18.80;44.60
4386;DHT22;2207;53.540;10.042;2023-05-19T06:55:26;19.50;43.60
4386;DHT22;2207;53.540;10.042;2023-05-19T06:57:52;21.00;42.20
4386;DHT22;2207;53.540;10.042;2023-05-19T07:00:19;21.70;39.50
4386;DHT22;2207;53.540;10.042;2023-05-19T07:02:46;21.50;38.90
4386;DHT22;2207;53.540;10.042;2023-05-19T07:05:13;21.00;39.20
4386;DHT22;2207;53.540;10.042;2023-05-19T07:07:41;21.10;39.20
4386;DHT22;2207;53.540;10.042;2023-05-19T07:10:08;21.20;38.20
4386;DHT22;2207;53.540;10.042;2023-05-19T07:12:35;21.40;38.80
4386;DHT22;2207;53.540;10.042;2023-05-19T07:15:02;22.80;37.50
4386;DHT22;2207;53.540;10.042;2023-05-19T07:17:29;24.50;35.80
4386;DHT22;2207;53.540;10.042;2023-05-19T07:19:55;25.20;34.10
4386;DHT22;2207;53.540;10.042;2023-05-19T07:22:22;25.50;33.50
4386;DHT22;2207;53.540;10.042;2023-05-19T07:24:50;25.60;32.20
4386;DHT22;2207;53.540;10.042;2023-05-19T07:27:17;25.10;33.10
4386;DHT22;2207;53.540;10.042;2023-05-19T07:29:44;25.10;32.70
4386;DHT22;2207;53.540;10.042;2023-05-19T07:32:10;25.60;32.80
4386;DHT22;2207;53.540;10.042;2023-05-19T07:34:37;26.00;31.90
4386;DHT22;2207;53.540;10.042;2023-05-19T07:37:04;25.90;31.30
4386;DHT22;2207;53.540;10.042;2023-05-19T07:39:30;25.10;31.10
4386;DHT22;2207;53.540;10.042;2023-05-19T07:41:59;24.10;32.10
4386;DHT22;2207;53.540;10.042;2023-05-19T07:44:25;24.40;32.40
4386;DHT22;2207;53.540;10.042;2023-05-19T07:46:52;25.30;31.50
4386;DHT22;2207;53.540;10.042;2023-05-19T07:49:19;26.40;30.50
4386;DHT22;2207;53.540;10.042;2023-05-19T07:51:46;27.80;28.40
4386;DHT22;2207;53.540;10.042;2023-05-19T07:54:12;28.70;27.10
4386;DHT22;2207;53.540;10.042;2023-05-19T07:56:39;29.00;26.80
4386;DHT22;2207;53.540;10.042;2023-05-19T07:59:07;29.60;26.40
4386;DHT22;2207;53.540;10.042;2023-05-19T08:01:34;30.00;26.10
4386;DHT22;2207;53.540;10.042;2023-05-19T08:04:01;29.80;26.40
4386;DHT22;2207;53.540;10.042;2023-05-19T08:06:27;28.70;26.10
4386;DHT22;2207;53.540;10.042;2023-05-19T08:08:56;27.60;27.00
4386;DHT22;2207;53.540;10.042;2023-05-19T08:11:22;26.70;27.60
4386;DHT22;2207;53.540;10.042;2023-05-19T08:13:49;25.20;28.10
4386;DHT22;2207;53.540;10.042;2023-05-19T08:16:18;23.30;29.90
4386;DHT22;2207;53.540;10.042;2023-05-19T08:18:45;21.80;31.50
4386;DHT22;2207;53.540;10.042;2023-05-19T08:21:11;20.70;33.20
4386;DHT22;2207;53.540;10.042;2023-05-19T08:23:38;20.10;34.30
4386;DHT22;2207;53.540;10.042;2023-05-19T08:26:05;19.60;35.00
4386;DHT22;2207;53.540;10.042;2023-05-19T08:28:31;19.20;36.40
4386;DHT22;2207;53.540;10.042;2023-05-19T08:30:58;19.00;36.20
4386;DHT22;2207;53.540;10.042;2023-05-19T08:33:26;18.90;36.60
4386;DHT22;2207;53.540;10.042;2023-05-19T08:35:54;18.90;36.80
4386;DHT22;2207;53.540;10.042;2023-05-19T08:38:22;18.90;36.80
4386;DHT22;2207;53.540;10.042;2023-05-19T08:40:49;19.00;36.80
4386;DHT22;2207;53.540;10.042;2023-05-19T08:43:15;19.00;36.90
4386;DHT22;2207;53.540;10.042;2023-05-19T08:45:43;18.90;37.20
4386;DHT22;2207;53.540;10.042;2023-05-19T08:48:13;18.70;37.30
4386;DHT22;2207;53.540;10.042;2023-05-19T08:50:45;18.50;37.80
4386;DHT22;2207;53.540;10.042;2023-05-19T08:53:19;18.50;38.10
4386;DHT22;2207;53.540;10.042;2023-05-19T08:55:52;18.60;37.80
4386;DHT22;2207;53.540;10.042;2023-05-19T08:58:23;18.70;37.10
4386;DHT22;2207;53.540;10.042;2023-05-19T09:00:51;18.60;37.10
4386;DHT22;2207;53.540;10.042;2023-05-19T09:03:19;18.50;37.20
4386;DHT22;2207;53.540;10.042;2023-05-19T09:05:47;18.30;37.00
4386;DHT22;2207;53.540;10.042;2023-05-19T09:08:14;18.10;37.70
4386;DHT22;2207;53.540;10.042;2023-05-19T09:10:40;18.00;38.10
4386;DHT22;2207;53.540;10.042;2023-05-19T09:13:07;18.10;38.40
4386;DHT22;2207;53.540;10.042;2023-05-19T09:15:34;18.10;39.00
4386;DHT22;2207;53.540;10.042;2023-05-19T09:18:08;18.20;39.20
4386;DHT22;2207;53.540;10.042;2023-05-19T09:20:39;18.10;39.40
4386;DHT22;2207;53.540;10.042;2023-05-19T09:23:11;17.90;40.10
4386;DHT22;2207;53.540;10.042;2023-05-19T09:25:45;17.80;40.00
4386;DHT22;2207;53.540;10.042;2023-05-19T09:28:12;17.80;40.60
4386;DHT22;2207;53.540;10.042;2023-05-19T09:30:39;17.90;40.10
4386;DHT22;2207;53.540;10.042;2023-05-19T09:33:05;18.10;39.90
4386;DHT22;2207;53.540;10.042;2023-05-19T09:35:34;18.20;38.90
4386;DHT22;2207;53.540;10.042;2023-05-19T09:38:01;17.90;38.90
4386;DHT22;2207;53.540;10.042;2023-05-19T09:40:29;17.80;39.50
4386;DHT22;2207;53.540;10.042;2023-05-19T09:42:57;18.00;39.20
4386;DHT22;2207;53.540;10.042;2023-05-19T09:45:26;18.20;38.90
4386;DHT22;2207;53.540;10.042;2023-05-19T09:47:53;18.50;38.60
4386;DHT22;2207;53.540;10.042;2023-05-19T09:50:21;18.70;38.20
4386;DHT22;2207;53.540;10.042;2023-05-19T09:52:48;18.60;37.80
4386;DHT22;2207;53.540;10.042;2023-05-19T09:55:15;18.60;37.80
4386;DHT22;2207;53.540;10.042;2023-05-19T09:57:44;18.50;38.00
4386;DHT22;2207;53.540;10.042;2023-05-19T10:00:11;18.40;38.10
4386;DHT22;2207;53.540;10.042;2023-05-19T10:02:41;18.40;38.20
4386;DHT22;2207;53.540;10.042;2023-05-19T10:05:10;18.30;37.90
4386;DHT22;2207;53.540;10.042;2023-05-19T10:07:39;18.10;38.40
4386;DHT22;2207;53.540;10.042;2023-05-19T10:10:08;18.00;38.80
4386;DHT22;2207;53.540;10.042;2023-05-19T10:12:37;18.20;38.90
4386;DHT22;2207;53.540;10.042;2023-05-19T10:15:08;18.30;37.80
4386;DHT22;2207;53.540;10.042;2023-05-19T10:17:35;18.20;37.80
4386;DHT22;2207;53.540;10.042;2023-05-19T10:20:04;18.40;37.40
4386;DHT22;2207;53.540;10.042;2023-05-19T10:22:32;18.40;37.40
4386;DHT22;2207;53.540;10.042;2023-05-19T10:24:59;18.30;37.50
4386;DHT22;2207;53.540;10.042;2023-05-19T10:27:27;18.20;37.50
4386;DHT22;2207;53.540;10.042;2023-05-19T10:29:56;18.10;37.70
4386;DHT22;2207;53.540;10.042;2023-05-19T10:32:28;18.10;37.60
4386;DHT22;2207;53.540;10.042;2023-05-19T10:35:27;18.00;37.70
4386;DHT22;2207;53.540;10.042;2023-05-19T10:38:15;18.00;38.10
4386;DHT22;2207;53.540;10.042;2023-05-19T10:40:56;18.10;37.90
4386;DHT22;2207;53.540;10.042;2023-05-19T10:43:43;18.10;38.10
4386;DHT22;2207;53.540;10.042;2023-05-19T10:46:14;18.10;38.50
4386;DHT22;2207;53.540;10.042;2023-05-19T10:48:44;18.20;38.60
4386;DHT22;2207;53.540;10.042;2023-05-19T10:51:13;18.00;38.80
4386;DHT22;2207;53.540;10.042;2023-05-19T10:53:41;17.90;39.20
4386;DHT22;2207;53.540;10.042;2023-05-19T10:56:10;17.90;38.90
4386;DHT22;2207;53.540;10.042;2023-05-19T10:58:48;17.90;38.00
4386;DHT22;2207;53.540;10.042;2023-05-19T11:01:17;17.80;38.00
4386;DHT22;2207;53.540;10.042;2023-05-19T11:03:47;17.80;38.30
4386;DHT22;2207;53.540;10.042;2023-05-19T11:06:25;17.80;38.20
4386;DHT22;2207;53.540;10.042;2023-05-19T11:08:53;18.00;37.60
4386;DHT22;2207;53.540;10.042;2023-05-19T11:11:20;18.00;37.00
4386;DHT22;2207;53.540;10.042;2023-05-19T11:13:50;18.20;37.20
4386;DHT22;2207;53.540;10.042;2023-05-19T11:16:26;18.30;36.90
4386;DHT22;2207;53.540;10.042;2023-05-19T11:18:57;18.30;37.10
4386;DHT22;2207;53.540;10.042;2023-05-19T11:21:46;18.30;37.00
4386;DHT22;2207;53.540;10.042;2023-05-19T11:24:34;18.30;36.60
4386;DHT22;2207;53.540;10.042;2023-05-19T11:27:16;18.30;36.20
4386;DHT22;2207;53.540;10.042;2023-05-19T11:29:43;18.30;36.40
4386;DHT22;2207;53.540;10.042;2023-05-19T11:32:11;18.20;36.40
4386;DHT22;2207;53.540;10.042;2023-05-19T11:34:40;18.10;36.90
4386;DHT22;2207;53.540;10.042;2023-05-19T11:37:07;17.90;37.10
4386;DHT22;2207;53.540;10.042;2023-05-19T11:39:34;17.80;37.20
4386;DHT22;2207;53.540;10.042;2023-05-19T11:42:01;17.70;37.20
4386;DHT22;2207;53.540;10.042;2023-05-19T11:44:27;17.70;37.00
4386;DHT22;2207;53.540;10.042;2023-05-19T11:46:54;17.70;36.80
4386;DHT22;2207;53.540;10.042;2023-05-19T11:49:21;17.80;36.00
4386;DHT22;2207;53.540;10.042;2023-05-19T11:51:49;17.80;36.40
4386;DHT22;2207;53.540;10.042;2023-05-19T11:54:17;18.00;36.00
4386;DHT22;2207;53.540;10.042;2023-05-19T11:56:43;18.30;35.70
4386;DHT22;2207;53.540;10.042;2023-05-19T11:59:10;18.60;35.60
4386;DHT22;2207;53.540;10.042;2023-05-19T12:01:37;18.60;35.20
4386;DHT22;2207;53.540;10.042;2023-05-19T12:04:07;18.60;35.30
4386;DHT22;2207;53.540;10.042;2023-05-19T12:06:34;18.50;35.30
4386;DHT22;2207;53.540;10.042;2023-05-19T12:09:04;18.50;35.60
4386;DHT22;2207;53.540;10.042;2023-05-19T12:11:31;18.70;35.30
4386;DHT22;2207;53.540;10.042;2023-05-19T12:13:57;18.70;34.70
4386;DHT22;2207;53.540;10.042;2023-05-19T12:16:31;18.70;34.80
4386;DHT22;2207;53.540;10.042;2023-05-19T12:18:58;18.80;34.70
4386;DHT22;2207;53.540;10.042;2023-05-19T12:21:25;19.00;34.60
4386;DHT22;2207;53.540;10.042;2023-05-19T12:23:52;18.90;34.00
4386;DHT22;2207;53.540;10.042;2023-05-19T12:26:20;18.80;34.30
4386;DHT22;2207;53.540;10.042;2023-05-19T12:28:48;18.90;34.60
4386;DHT22;2207;53.540;10.042;2023-05-19T12:31:17;19.40;34.60
4386;DHT22;2207;53.540;10.042;2023-05-19T12:33:44;19.90;33.90
4386;DHT22;2207;53.540;10.042;2023-05-19T12:36:11;20.20;33.50
4386;DHT22;2207;53.540;10.042;2023-05-19T12:38:38;20.40;33.30
4386;DHT22;2207;53.540;10.042;2023-05-19T12:41:06;20.60;33.20
4386;DHT22;2207;53.540;10.042;2023-05-19T12:43:34;20.80;32.90
4386;DHT22;2207;53.540;10.042;2023-05-19T12:46:08;20.80;32.20
4386;DHT22;2207;53.540;10.042;2023-05-19T12:48:39;20.50;33.10
4386;DHT22;2207;53.540;10.042;2023-05-19T12:51:06;20.00;33.80
4386;DHT22;2207;53.540;10.042;2023-05-19T12:53:32;19.60;34.60
4386;DHT22;2207;53.540;10.042;2023-05-19T12:55:59;19.10;35.10
4386;DHT22;2207;53.540;10.042;2023-05-19T12:58:26;18.80;35.60
4386;DHT22;2207;53.540;10.042;2023-05-19T13:00:57;18.60;36.00
4386;DHT22;2207;53.540;10.042;2023-05-19T13:03:24;18.70;36.20
4386;DHT22;2207;53.540;10.042;2023-05-19T13:05:51;18.80;35.90
4386;DHT22;2207;53.540;10.042;2023-05-19T13:08:19;18.90;35.70
4386;DHT22;2207;53.540;10.042;2023-05-19T13:10:48;18.90;35.80
4386;DHT22;2207;53.540;10.042;2023-05-19T13:13:15;19.00;35.50
4386;DHT22;2207;53.540;10.042;2023-05-19T13:15:43;19.00;35.60
4386;DHT22;2207;53.540;10.042;2023-05-19T13:18:12;19.10;35.60
4386;DHT22;2207;53.540;10.042;2023-05-19T13:20:41;19.30;35.60
4386;DHT22;2207;53.540;10.042;2023-05-19T13:23:09;19.30;35.50
4386;DHT22;2207;53.540;10.042;2023-05-19T13:25:36;19.30;35.50
4386;DHT22;2207;53.540;10.042;2023-05-19T13:28:03;19.30;35.70
4386;DHT22;2207;53.540;10.042;2023-05-19T13:30:31;19.30;35.70
4386;DHT22;2207;53.540;10.042;2023-05-19T13:32:58;19.20;35.60
4386;DHT22;2207;53.540;10.042;2023-05-19T13:35:26;19.10;35.60
4386;DHT22;2207;53.540;10.042;2023-05-19T13:37:53;19.20;35.80
4386;DHT22;2207;53.540;10.042;2023-05-19T13:40:19;19.30;35.70
4386;DHT22;2207;53.540;10.042;2023-05-19T13:42:48;19.30;35.80
4386;DHT22;2207;53.540;10.042;2023-05-19T13:45:14;19.20;36.60
4386;DHT22;2207;53.540;10.042;2023-05-19T13:47:42;19.10;36.20
4386;DHT22;2207;53.540;10.042;2023-05-19T13:50:09;19.20;36.20
4386;DHT22;2207;53.540;10.042;2023-05-19T13:52:39;19.50;36.00
4386;DHT22;2207;53.540;10.042;2023-05-19T13:55:06;19.80;35.10
4386;DHT22;2207;53.540;10.042;2023-05-19T13:57:33;20.00;34.60
4386;DHT22;2207;53.540;10.042;2023-05-19T13:59:59;20.00;34.80
4386;DHT22;2207;53.540;10.042;2023-05-19T14:02:26;19.70;34.70
4386;DHT22;2207;53.540;10.042;2023-05-19T14:04:54;19.50;35.10
4386;DHT22;2207;53.540;10.042;2023-05-19T14:07:20;19.10;35.50
4386;DHT22;2207;53.540;10.042;2023-05-19T14:09:48;18.90;36.00
4386;DHT22;2207;53.540;10.042;2023-05-19T14:12:16;18.80;36.30
4386;DHT22;2207;53.540;10.042;2023-05-19T14:14:43;18.60;37.10
4386;DHT22;2207;53.540;10.042;2023-05-19T14:17:11;18.50;37.10
4386;DHT22;2207;53.540;10.042;2023-05-19T14:19:38;18.40;37.40
4386;DHT22;2207;53.540;10.042;2023-05-19T14:22:05;18.40;37.60
4386;DHT22;2207;53.540;10.042;2023-05-19T14:24:33;18.60;37.60
4386;DHT22;2207;53.540;10.042;2023-05-19T14:27:01;18.90;37.20
4386;DHT22;2207;53.540;10.042;2023-05-19T14:34:35;19.40;36.70
4386;DHT22;2207;53.540;10.042;2023-05-19T14:37:01;19.50;36.60
4386;DHT22;2207;53.540;10.042;2023-05-19T14:39:29;19.70;36.30
4386;DHT22;2207;53.540;10.042;2023-05-19T14:41:56;19.90;36.00
4386;DHT22;2207;53.540;10.042;2023-05-19T14:44:29;20.20;35.40
4386;DHT22;2207;53.540;10.042;2023-05-19T14:46:55;20.30;35.10
4386;DHT22;2207;53.540;10.042;2023-05-19T14:49:22;20.40;34.90
4386;DHT22;2207;53.540;10.042;2023-05-19T14:51:48;20.50;34.80
4386;DHT22;2207;53.540;10.042;2023-05-19T14:54:15;20.60;35.30
4386;DHT22;2207;53.540;10.042;2023-05-19T14:56:42;20.40;35.30
4386;DHT22;2207;53.540;10.042;2023-05-19T14:59:08;20.40;35.70
4386;DHT22;2207;53.540;10.042;2023-05-19T15:01:37;20.40;36.20
4386;DHT22;2207;53.540;10.042;2023-05-19T15:04:03;20.30;36.50
4386;DHT22;2207;53.540;10.042;2023-05-19T15:06:30;20.30;36.70
4386;DHT22;2207;53.540;10.042;2023-05-19T15:08:57;20.30;37.10
4386;DHT22;2207;53.540;10.042;2023-05-19T15:11:23;20.30;37.30
4386;DHT22;2207;53.540;10.042;2023-05-19T15:13:50;20.10;37.70
4386;DHT22;2207;53.540;10.042;2023-05-19T15:16:17;19.90;37.90
4386;DHT22;2207;53.540;10.042;2023-05-19T15:18:45;19.70;38.00
4386;DHT22;2207;53.540;10.042;2023-05-19T15:21:12;19.50;38.30
4386;DHT22;2207;53.540;10.042;2023-05-19T15:23:38;19.60;38.40
4386;DHT22;2207;53.540;10.042;2023-05-19T15:26:05;19.80;37.90
4386;DHT22;2207;53.540;10.042;2023-05-19T15:28:32;19.90;37.50
4386;DHT22;2207;53.540;10.042;2023-05-19T15:30:59;19.70;37.80
4386;DHT22;2207;53.540;10.042;2023-05-19T15:33:26;19.60;38.20
4386;DHT22;2207;53.540;10.042;2023-05-19T15:35:54;19.60;38.30
4386;DHT22;2207;53.540;10.042;2023-05-19T15:38:20;19.50;38.80
4386;DHT22;2207;53.540;10.042;2023-05-19T15:40:47;19.40;39.00
4386;DHT22;2207;53.540;10.042;2023-05-19T15:43:14;19.20;39.30
4386;DHT22;2207;53.540;10.042;2023-05-19T15:45:41;19.00;39.40
4386;DHT22;2207;53.540;10.042;2023-05-19T15:48:08;19.10;39.50
4386;DHT22;2207;53.540;10.042;2023-05-19T15:50:35;19.00;39.60
4386;DHT22;2207;53.540;10.042;2023-05-19T15:53:03;18.90;39.90
4386;DHT22;2207;53.540;10.042;2023-05-19T15:55:32;18.90;40.00
4386;DHT22;2207;53.540;10.042;2023-05-19T15:57:58;18.80;40.00
4386;DHT22;2207;53.540;10.042;2023-05-19T16:00:25;18.80;40.40